sensor_id;sensor_type;location;lat;lon;timestamp;pressure;altitude;pressure_sealevel;temperature;humidity
22283;BME280;11310;51.528;21.204;2023-06-22T00:01:05;100027.06;;;21.40;100.00
22283;BME280;11310;51.528;21.204;2023-06-22T00:03:36;100027.31;;;21.37;100.00
22283;BME280;11310;51.528;21.204;2023-06-22T00:06:05;100025.91;;;21.33;100.00
22283;BME280;11310;51.528;21.204;2023-06-22T00:08:33;100022.81;;;21.28;100.00
22283;BME280;11310;51.528;21.204;2023-06-22T00:11:02;100015.38;;;21.22;100.00
22283;BME280;11310;51.528;21.204;2023-06-22T00:13:31;100016.19;;;21.13;100.00
22283;BME280;11310;51.528;21.204;2023-06-22T00:16:01;100026.13;;;21.11;100.00
22283;BME280;11310;51.528;21.204;2023-06-22T00:18:29;100025.44;;;21.09;100.00
22283;BME280;11310;51.528;21.204;2023-06-22T00:20:59;100025.69;;;21.06;100.00
22283;BME280;11310;51.528;21.204;2023-06-22T00:23:28;100020.53;;;21.04;100.00
22283;BME280;11310;51.528;21.204;2023-06-22T00:26:01;100018.13;;;21.01;100.00
22283;BME280;11310;51.528;21.204;2023-06-22T00:28:29;100018.94;;;21.02;100.00
22283;BME280;11310;51.528;21.204;2023-06-22T00:31:01;100027.50;;;20.96;100.00
22283;BME280;11310;51.528;21.204;2023-06-22T00:33:33;100019.28;;;20.87;100.00
22283;BME280;11310;51.528;21.204;2023-06-22T00:36:05;100029.53;;;20.82;100.00
22283;BME280;11310;51.528;21.204;2023-06-22T00:38:37;100027.66;;;20.73;100.00
22283;BME280;11310;51.528;21.204;2023-06-22T00:41:08;100031.44;;;20.71;100.00
22283;BME280;11310;51.528;21.204;2023-06-22T00:43:36;100031.75;;;20.68;100.00
22283;BME280;11310;51.528;21.204;2023-06-22T00:46:06;100029.91;;;20.68;100.00
22283;BME280;11310;51.528;21.204;2023-06-22T00:48:36;100034.09;;;20.61;100.00
22283;BME280;11310;51.528;21.204;2023-06-22T00:51:05;100040.66;;;20.57;100.00
22283;BME280;11310;51.528;21.204;2023-06-22T00:53:34;100042.59;;;20.55;100.00
22283;BME280;11310;51.528;21.204;2023-06-22T00:56:04;100048.66;;;20.57;100.00
22283;BME280;11310;51.528;21.204;2023-06-22T00:58:35;100052.31;;;20.56;100.00
22283;BME280;11310;51.528;21.204;2023-06-22T01:01:06;100051.88;;;20.51;100.00
22283;BME280;11310;51.528;21.204;2023-06-22T01:03:36;100056.03;;;20.44;100.00
22283;BME280;11310;51.528;21.204;2023-06-22T01:06:08;100066.22;;;20.39;100.00
22283;BME280;11310;51.528;21.204;2023-06-22T01:08:52;100048.81;;;20.35;100.00
22283;BME280;11310;51.528;21.204;2023-06-22T01:11:28;100056.09;;;20.33;100.00
22283;BME280;11310;51.528;21.204;2023-06-22T01:14:05;100053.69;;;20.30;100.00
22283;BME280;11310;51.528;21.204;2023-06-22T01:16:41;100053.69;;;20.30;100.00
22283;BME280;11310;51.528;21.204;2023-06-22T01:19:29;100055.66;;;20.28;100.00
22283;BME280;11310;51.528;21.204;2023-06-22T01:22:08;100055.66;;;20.28;100.00
22283;BME280;11310;51.528;21.204;2023-06-22T01:24:54;100054.47;;;20.21;100.00
22283;BME280;11310;51.528;21.204;2023-06-22T01:27:32;100048.69;;;20.16;100.00
22283;BME280;11310;51.528;21.204;2023-06-22T01:30:10;100038.41;;;20.12;100.00
22283;BME280;11310;51.528;21.204;2023-06-22T01:32:40;100039.53;;;20.09;100.00
22283;BME280;11310;51.528;21.204;2023-06-22T01:35:10;100039.91;;;20.05;100.00
22283;BME280;11310;51.528;21.204;2023-06-22T01:37:39;100030.34;;;20.02;100.00
22283;BME280;11310;51.528;21.204;2023-06-22T01:40:08;100022.59;;;19.99;100.00
22283;BME280;11310;51.528;21.204;2023-06-22T01:42:39;100028.91;;;19.98;100.00
22283;BME280;11310;51.528;21.204;2023-06-22T01:45:10;100037.75;;;19.99;100.00
22283;BME280;11310;51.528;21.204;2023-06-22T01:47:41;100045.59;;;20.00;100.00
22283;BME280;11310;51.528;21.204;2023-06-22T01:50:12;100045.59;;;20.00;100.00
22283;BME280;11310;51.528;21.204;2023-06-22T01:52:40;100043.91;;;19.99;100.00
22283;BME280;11310;51.528;21.204;2023-06-22T01:55:09;100036.44;;;19.93;100.00
22283;BME280;11310;51.528;21.204;2023-06-22T01:57:39;100048.19;;;19.91;100.00
22283;BME280;11310;51.528;21.204;2023-06-22T02:00:13;100041.91;;;19.92;100.00
22283;BME280;11310;51.528;21.204;2023-06-22T02:02:53;100038.66;;;19.88;100.00
22283;BME280;11310;51.528;21.204;2023-06-22T02:05:24;100042.69;;;20.03;100.00
22283;BME280;11310;51.528;21.204;2023-06-22T02:07:59;100039.91;;;20.05;100.00
22283;BME280;11310;51.528;21.204;2023-06-22T02:10:31;100044.19;;;19.96;100.00
22283;BME280;11310;51.528;21.204;2023-06-22T02:13:03;100040.34;;;19.89;100.00
22283;BME280;11310;51.528;21.204;2023-06-22T02:15:34;100039.75;;;19.86;100.00
22283;BME280;11310;51.528;21.204;2023-06-22T02:18:03;100047.63;;;19.87;100.00
22283;BME280;11310;51.528;21.204;2023-06-22T02:20:32;100048.00;;;19.83;100.00
22283;BME280;11310;51.528;21.204;2023-06-22T02:23:02;100051.75;;;19.80;100.00
22283;BME280;11310;51.528;21.204;2023-06-22T02:25:30;100054.41;;;19.80;100.00
22283;BME280;11310;51.528;21.204;2023-06-22T02:27:59;100064.50;;;19.77;100.00
22283;BME280;11310;51.528;21.204;2023-06-22T02:30:28;100061.94;;;19.75;100.00
22283;BME280;11310;51.528;21.204;2023-06-22T02:33:00;100074.41;;;19.75;100.00
22283;BME280;11310;51.528;21.204;2023-06-22T02:35:29;100075.50;;;19.72;100.00
22283;BME280;11310;51.528;21.204;2023-06-22T02:37:58;100072.84;;;19.72;100.00
22283;BME280;11310;51.528;21.204;2023-06-22T02:40:28;100083.72;;;19.80;100.00
22283;BME280;11310;51.528;21.204;2023-06-22T02:42:58;100078.84;;;19.85;100.00
22283;BME280;11310;51.528;21.204;2023-06-22T02:45:30;100080.16;;;19.91;100.00
22283;BME280;11310;51.528;21.204;2023-06-22T02:48:00;100086.81;;;19.96;100.00
22283;BME280;11310;51.528;21.204;2023-06-22T02:50:28;100092.59;;;20.01;100.00
22283;BME280;11310;51.528;21.204;2023-06-22T02:52:58;100087.47;;;20.09;100.00
22283;BME280;11310;51.528;21.204;2023-06-22T02:55:30;100094.00;;;20.16;100.00
22283;BME280;11310;51.528;21.204;2023-06-22T02:57:59;100085.59;;;20.21;100.00
22283;BME280;11310;51.528;21.204;2023-06-22T03:00:34;100090.66;;;20.24;100.00
22283;BME280;11310;51.528;21.204;2023-06-22T03:03:04;100090.44;;;20.27;100.00
22283;BME280;11310;51.528;21.204;2023-06-22T03:05:33;100091.00;;;20.30;100.00
22283;BME280;11310;51.528;21.204;2023-06-22T03:08:03;100090.75;;;20.33;100.00
22283;BME280;11310;51.528;21.204;2023-06-22T03:10:33;100093.75;;;20.40;100.00
22283;BME280;11310;51.528;21.204;2023-06-22T03:13:02;100097.09;;;20.42;100.00
22283;BME280;11310;51.528;21.204;2023-06-22T03:15:31;100089.97;;;20.42;100.00
22283;BME280;11310;51.528;21.204;2023-06-22T03:18:01;100096.19;;;20.52;100.00
22283;BME280;11310;51.528;21.204;2023-06-22T03:20:32;100100.69;;;20.52;100.00
22283;BME280;11310;51.528;21.204;2023-06-22T03:23:00;100101.25;;;20.55;100.00
22283;BME280;11310;51.528;21.204;2023-06-22T03:25:29;100106.06;;;20.61;100.00
22283;BME280;11310;51.528;21.204;2023-06-22T03:27:58;100103.97;;;20.65;100.00
22283;BME280;11310;51.528;21.204;2023-06-22T03:30:27;100110.50;;;20.72;100.00
22283;BME280;11310;51.528;21.204;2023-06-22T03:32:56;100110.34;;;20.73;100.00
22283;BME280;11310;51.528;21.204;2023-06-22T03:35:26;100111.75;;;20.77;100.00
22283;BME280;11310;51.528;21.204;2023-06-22T03:37:57;100122.19;;;20.80;100.00
22283;BME280;11310;51.528;21.204;2023-06-22T03:40:26;100122.75;;;20.84;100.00
22283;BME280;11310;51.528;21.204;2023-06-22T03:42:56;100134.00;;;20.87;100.00
22283;BME280;11310;51.528;21.204;2023-06-22T03:45:24;100136.53;;;20.89;100.00
22283;BME280;11310;51.528;21.204;2023-06-22T03:47:53;100142.50;;;20.93;100.00
22283;BME280;11310;51.528;21.204;2023-06-22T03:50:21;100149.09;;;20.98;100.00
22283;BME280;11310;51.528;21.204;2023-06-22T03:52:54;100146.06;;;21.03;100.00
22283;BME280;11310;51.528;21.204;2023-06-22T03:55:24;100146.19;;;21.11;100.00
22283;BME280;11310;51.528;21.204;2023-06-22T03:57:53;100142.16;;;21.16;100.00
22283;BME280;11310;51.528;21.204;2023-06-22T04:00:24;100142.59;;;21.21;100.00
22283;BME280;11310;51.528;21.204;2023-06-22T04:02:53;100144.16;;;21.24;100.00
22283;BME280;11310;51.528;21.204;2023-06-22T04:05:22;100142.91;;;21.28;100.00
22283;BME280;11310;51.528;21.204;2023-06-22T04:07:51;100147.69;;;21.34;100.00
22283;BME280;11310;51.528;21.204;2023-06-22T04:10:20;100141.13;;;21.38;100.00
22283;BME280;11310;51.528;21.204;2023-06-22T04:12:50;100147.88;;;21.42;100.00
22283;BME280;11310;51.528;21.204;2023-06-22T04:15:18;100148.03;;;21.50;100.00
22283;BME280;11310;51.528;21.204;2023-06-22T04:17:47;100150.16;;;21.56;100.00
22283;BME280;11310;51.528;21.204;2023-06-22T04:20:16;100155.09;;;21.60;100.00
22283;BME280;11310;51.528;21.204;2023-06-22T04:22:44;100161.00;;;21.64;100.00
22283;BME280;11310;51.528;21.204;2023-06-22T04:25:14;100159.91;;;21.66;100.00
22283;BME280;11310;51.528;21.204;2023-06-22T04:27:43;100156.22;;;21.67;100.00
22283;BME280;11310;51.528;21.204;2023-06-22T04:30:14;100158.25;;;21.75;100.00
22283;BME280;11310;51.528;21.204;2023-06-22T04:32:44;100157.41;;;21.84;100.00
22283;BME280;11310;51.528;21.204;2023-06-22T04:35:13;100161.66;;;21.96;100.00
22283;BME280;11310;51.528;21.204;2023-06-22T04:37:43;100161.81;;;22.04;100.00
22283;BME280;11310;51.528;21.204;2023-06-22T04:40:15;100154.22;;;22.09;100.00
22283;BME280;11310;51.528;21.204;2023-06-22T04:42:44;100164.06;;;22.08;100.00
22283;BME280;11310;51.528;21.204;2023-06-22T04:45:20;100170.94;;;22.11;100.00
22283;BME280;11310;51.528;21.204;2023-06-22T04:47:49;100160.00;;;22.14;100.00
22283;BME280;11310;51.528;21.204;2023-06-22T04:50:18;100162.53;;;22.15;100.00
22283;BME280;11310;51.528;21.204;2023-06-22T04:52:48;100163.09;;;22.19;100.00
22283;BME280;11310;51.528;21.204;2023-06-22T04:55:17;100166.63;;;22.19;100.00
22283;BME280;11310;51.528;21.204;2023-06-22T04:57:49;100173.38;;;22.23;100.00
22283;BME280;11310;51.528;21.204;2023-06-22T05:00:18;100179.97;;;22.29;100.00
22283;BME280;11310;51.528;21.204;2023-06-22T05:02:51;100175.91;;;22.34;100.00
22283;BME280;11310;51.528;21.204;2023-06-22T05:05:36;100180.66;;;22.40;100.00
22283;BME280;11310;51.528;21.204;2023-06-22T05:08:05;100179.41;;;22.44;100.00
22283;BME280;11310;51.528;21.204;2023-06-22T05:10:34;100181.69;;;22.49;100.00
22283;BME280;11310;51.528;21.204;2023-06-22T05:13:06;100173.09;;;22.55;100.00
22283;BME280;11310;51.528;21.204;2023-06-22T05:15:34;100172.66;;;22.59;100.00
22283;BME280;11310;51.528;21.204;2023-06-22T05:18:08;100169.28;;;22.57;100.00
22283;BME280;11310;51.528;21.204;2023-06-22T05:20:39;100167.63;;;22.56;100.00
22283;BME280;11310;51.528;21.204;2023-06-22T05:23:07;100165.75;;;22.57;100.00
22283;BME280;11310;51.528;21.204;2023-06-22T05:25:36;100171.53;;;22.62;100.00
22283;BME280;11310;51.528;21.204;2023-06-22T05:28:05;100176.59;;;22.65;100.00
22283;BME280;11310;51.528;21.204;2023-06-22T05:30:38;100178.69;;;22.71;100.00
22283;BME280;11310;51.528;21.204;2023-06-22T05:33:08;100175.19;;;22.70;100.00
22283;BME280;11310;51.528;21.204;2023-06-22T05:35:37;100176.59;;;22.74;100.00
22283;BME280;11310;51.528;21.204;2023-06-22T05:38:06;100176.47;;;22.76;100.00
22283;BME280;11310;51.528;21.204;2023-06-22T05:40:34;100176.88;;;22.81;100.00
22283;BME280;11310;51.528;21.204;2023-06-22T05:43:03;100182.78;;;22.84;100.00
22283;BME280;11310;51.528;21.204;2023-06-22T05:45:32;100178.97;;;22.87;100.00
22283;BME280;11310;51.528;21.204;2023-06-22T05:48:00;100183.03;;;22.91;100.00
22283;BME280;11310;51.528;21.204;2023-06-22T05:50:30;100185.84;;;22.99;100.00
22283;BME280;11310;51.528;21.204;2023-06-22T05:52:59;100181.56;;;23.06;100.00
22283;BME280;11310;51.528;21.204;2023-06-22T05:55:28;100190.88;;;23.11;100.00
22283;BME280;11310;51.528;21.204;2023-06-22T05:57:56;100197.47;;;23.17;100.00
22283;BME280;11310;51.528;21.204;2023-06-22T06:00:24;100193.25;;;23.24;100.00
22283;BME280;11310;51.528;21.204;2023-06-22T06:02:53;100196.47;;;23.27;100.00
22283;BME280;11310;51.528;21.204;2023-06-22T06:05:22;100190.84;;;23.30;100.00
22283;BME280;11310;51.528;21.204;2023-06-22T06:07:54;100200.94;;;23.36;100.00
22283;BME280;11310;51.528;21.204;2023-06-22T06:10:22;100213.06;;;23.40;100.00
22283;BME280;11310;51.528;21.204;2023-06-22T06:12:51;100216.72;;;23.39;100.00
22283;BME280;11310;51.528;21.204;2023-06-22T06:15:19;100212.22;;;23.40;100.00
22283;BME280;11310;51.528;21.204;2023-06-22T06:17:48;100207.97;;;23.47;100.00
22283;BME280;11310;51.528;21.204;2023-06-22T06:20:19;100206.53;;;23.52;100.00
22283;BME280;11310;51.528;21.204;2023-06-22T06:22:49;100213.97;;;23.58;100.00
22283;BME280;11310;51.528;21.204;2023-06-22T06:25:19;100216.03;;;23.64;100.00
22283;BME280;11310;51.528;21.204;2023-06-22T06:27:50;100217.56;;;23.67;100.00
22283;BME280;11310;51.528;21.204;2023-06-22T06:30:22;100216.00;;;23.74;100.00
22283;BME280;11310;51.528;21.204;2023-06-22T06:32:51;100220.47;;;23.83;100.00
22283;BME280;11310;51.528;21.204;2023-06-22T06:35:20;100212.56;;;23.91;100.00
22283;BME280;11310;51.528;21.204;2023-06-22T06:37:50;100219.72;;;24.00;100.00
22283;BME280;11310;51.528;21.204;2023-06-22T06:40:20;100219.47;;;24.11;100.00
22283;BME280;11310;51.528;21.204;2023-06-22T06:42:49;100219.56;;;24.19;100.00
22283;BME280;11310;51.528;21.204;2023-06-22T06:45:19;100212.28;;;24.29;100.00
22283;BME280;11310;51.528;21.204;2023-06-22T06:47:50;100208.69;;;24.38;100.00
22283;BME280;11310;51.528;21.204;2023-06-22T06:50:20;100206.13;;;24.54;100.00
22283;BME280;11310;51.528;21.204;2023-06-22T06:52:48;100211.69;;;24.70;100.00
22283;BME280;11310;51.528;21.204;2023-06-22T06:55:23;100211.41;;;24.73;100.00
22283;BME280;11310;51.528;21.204;2023-06-22T06:57:52;100211.44;;;24.81;100.00
22283;BME280;11310;51.528;21.204;2023-06-22T07:00:21;100209.91;;;25.04;100.00
22283;BME280;11310;51.528;21.204;2023-06-22T07:02:50;100212.16;;;25.34;100.00
22283;BME280;11310;51.528;21.204;2023-06-22T07:05:40;100214.00;;;25.67;100.00
22283;BME280;11310;51.528;21.204;2023-06-22T07:08:10;100215.44;;;25.87;100.00
22283;BME280;11310;51.528;21.204;2023-06-22T07:10:41;100221.88;;;25.94;100.00
22283;BME280;11310;51.528;21.204;2023-06-22T07:13:10;100225.84;;;25.90;100.00
22283;BME280;11310;51.528;21.204;2023-06-22T07:15:38;100220.22;;;26.01;100.00
22283;BME280;11310;51.528;21.204;2023-06-22T07:18:08;100221.91;;;26.02;100.00
22283;BME280;11310;51.528;21.204;2023-06-22T07:20:37;100222.91;;;26.09;100.00
22283;BME280;11310;51.528;21.204;2023-06-22T07:23:06;100223.94;;;26.08;100.00
22283;BME280;11310;51.528;21.204;2023-06-22T07:25:35;100225.66;;;26.25;100.00
22283;BME280;11310;51.528;21.204;2023-06-22T07:28:06;100221.97;;;26.34;100.00
22283;BME280;11310;51.528;21.204;2023-06-22T07:30:35;100223.47;;;26.28;100.00
22283;BME280;11310;51.528;21.204;2023-06-22T07:33:04;100224.31;;;26.21;100.00
22283;BME280;11310;51.528;21.204;2023-06-22T07:35:35;100224.31;;;26.21;100.00
22283;BME280;11310;51.528;21.204;2023-06-22T07:38:04;100219.59;;;26.31;100.00
22283;BME280;11310;51.528;21.204;2023-06-22T07:40:33;100225.34;;;26.28;100.00
22283;BME280;11310;51.528;21.204;2023-06-22T07:43:02;100230.38;;;26.31;100.00
22283;BME280;11310;51.528;21.204;2023-06-22T07:45:33;100232.75;;;26.34;100.00
22283;BME280;11310;51.528;21.204;2023-06-22T07:48:02;100219.13;;;26.43;100.00
22283;BME280;11310;51.528;21.204;2023-06-22T07:50:31;100222.84;;;26.50;100.00
22283;BME280;11310;51.528;21.204;2023-06-22T07:53:00;100223.72;;;26.59;99.38
22283;BME280;11310;51.528;21.204;2023-06-22T07:55:28;100221.72;;;26.61;99.07
22283;BME280;11310;51.528;21.204;2023-06-22T07:57:57;100230.78;;;26.60;97.93
22283;BME280;11310;51.528;21.204;2023-06-22T08:00:26;100225.56;;;26.58;98.24
22283;BME280;11310;51.528;21.204;2023-06-22T08:02:56;100219.34;;;26.66;97.35
22283;BME280;11310;51.528;21.204;2023-06-22T08:05:25;100220.16;;;26.66;98.11
22283;BME280;11310;51.528;21.204;2023-06-22T08:07:55;100230.09;;;26.82;96.88
22283;BME280;11310;51.528;21.204;2023-06-22T08:10:23;100228.06;;;27.00;96.11
22283;BME280;11310;51.528;21.204;2023-06-22T08:12:53;100230.06;;;27.14;94.98
22283;BME280;11310;51.528;21.204;2023-06-22T08:15:22;100222.00;;;27.30;95.00
22283;BME280;11310;51.528;21.204;2023-06-22T08:17:52;100225.84;;;27.43;92.96
22283;BME280;11310;51.528;21.204;2023-06-22T08:20:22;100232.06;;;27.52;93.36
22283;BME280;11310;51.528;21.204;2023-06-22T08:22:54;100238.75;;;27.64;92.73
22283;BME280;11310;51.528;21.204;2023-06-22T08:25:26;100230.66;;;27.64;92.46
22283;BME280;11310;51.528;21.204;2023-06-22T08:27:56;100240.56;;;27.71;91.53
22283;BME280;11310;51.528;21.204;2023-06-22T08:30:24;100241.25;;;27.81;91.25
22283;BME280;11310;51.528;21.204;2023-06-22T08:32:53;100246.09;;;27.94;90.44
22283;BME280;11310;51.528;21.204;2023-06-22T08:35:24;100242.16;;;28.04;89.84
22283;BME280;11310;51.528;21.204;2023-06-22T08:37:52;100237.72;;;28.11;89.40
22283;BME280;11310;51.528;21.204;2023-06-22T08:40:22;100236.28;;;28.31;88.44
22283;BME280;11310;51.528;21.204;2023-06-22T08:42:51;100241.94;;;28.44;87.70
22283;BME280;11310;51.528;21.204;2023-06-22T08:45:20;100243.31;;;28.63;85.80
22283;BME280;11310;51.528;21.204;2023-06-22T08:47:48;100238.44;;;28.58;85.58
22283;BME280;11310;51.528;21.204;2023-06-22T08:50:17;100238.88;;;28.70;85.59
22283;BME280;11310;51.528;21.204;2023-06-22T08:52:48;100246.00;;;28.86;84.40
22283;BME280;11310;51.528;21.204;2023-06-22T08:55:17;100239.50;;;28.95;83.29
22283;BME280;11310;51.528;21.204;2023-06-22T08:57:45;100236.59;;;29.04;82.67
22283;BME280;11310;51.528;21.204;2023-06-22T09:00:15;100237.53;;;29.11;80.74
22283;BME280;11310;51.528;21.204;2023-06-22T09:02:45;100242.78;;;29.27;80.41
22283;BME280;11310;51.528;21.204;2023-06-22T09:05:15;100235.91;;;29.39;80.08
22283;BME280;11310;51.528;21.204;2023-06-22T09:07:44;100236.47;;;29.49;80.54
22283;BME280;11310;51.528;21.204;2023-06-22T09:10:14;100238.09;;;29.58;78.71
22283;BME280;11310;51.528;21.204;2023-06-22T09:12:43;100235.72;;;29.55;77.14
22283;BME280;11310;51.528;21.204;2023-06-22T09:15:12;100240.47;;;29.53;77.16
22283;BME280;11310;51.528;21.204;2023-06-22T09:17:53;100241.81;;;29.57;75.84
22283;BME280;11310;51.528;21.204;2023-06-22T09:20:23;100234.63;;;29.64;77.18
22283;BME280;11310;51.528;21.204;2023-06-22T09:22:51;100237.78;;;29.68;75.60
22283;BME280;11310;51.528;21.204;2023-06-22T09:25:21;100230.53;;;29.68;74.14
22283;BME280;11310;51.528;21.204;2023-06-22T09:27:50;100229.75;;;29.74;75.15
22283;BME280;11310;51.528;21.204;2023-06-22T09:30:18;100235.88;;;29.97;74.77
22283;BME280;11310;51.528;21.204;2023-06-22T09:32:47;100237.03;;;30.17;73.13
22283;BME280;11310;51.528;21.204;2023-06-22T09:35:16;100226.06;;;30.25;70.19
22283;BME280;11310;51.528;21.204;2023-06-22T09:37:45;100232.66;;;30.37;68.55
22283;BME280;11310;51.528;21.204;2023-06-22T09:40:14;100234.31;;;30.38;68.56
22283;BME280;11310;51.528;21.204;2023-06-22T09:42:46;100228.91;;;30.38;63.28
22283;BME280;11310;51.528;21.204;2023-06-22T09:45:15;100233.09;;;30.41;70.54
22283;BME280;11310;51.528;21.204;2023-06-22T09:47:44;100244.00;;;30.47;68.45
22283;BME280;11310;51.528;21.204;2023-06-22T09:50:13;100240.25;;;30.48;68.49
22283;BME280;11310;51.528;21.204;2023-06-22T09:52:42;100239.88;;;30.51;66.61
22283;BME280;11310;51.528;21.204;2023-06-22T09:55:22;100230.28;;;30.49;65.65
22283;BME280;11310;51.528;21.204;2023-06-22T09:57:52;100234.28;;;30.53;64.62
22283;BME280;11310;51.528;21.204;2023-06-22T10:00:23;100231.63;;;30.59;64.65
22283;BME280;11310;51.528;21.204;2023-06-22T10:02:54;100242.44;;;30.74;64.18
22283;BME280;11310;51.528;21.204;2023-06-22T10:05:27;100239.03;;;30.86;63.30
22283;BME280;11310;51.528;21.204;2023-06-22T10:07:56;100238.91;;;31.01;62.63
22283;BME280;11310;51.528;21.204;2023-06-22T10:10:25;100242.09;;;31.04;61.61
22283;BME280;11310;51.528;21.204;2023-06-22T10:12:57;100232.19;;;30.90;60.38
22283;BME280;11310;51.528;21.204;2023-06-22T10:15:26;100242.03;;;30.98;61.31
22283;BME280;11310;51.528;21.204;2023-06-22T10:17:56;100241.69;;;31.07;60.43
22283;BME280;11310;51.528;21.204;2023-06-22T10:20:24;100242.97;;;31.11;59.86
22283;BME280;11310;51.528;21.204;2023-06-22T10:22:53;100239.28;;;31.19;60.05
22283;BME280;11310;51.528;21.204;2023-06-22T10:25:26;100232.69;;;31.28;59.57
22283;BME280;11310;51.528;21.204;2023-06-22T10:27:56;100233.22;;;31.44;58.28
22283;BME280;11310;51.528;21.204;2023-06-22T10:30:25;100233.09;;;31.59;57.27
22283;BME280;11310;51.528;21.204;2023-06-22T10:32:53;100236.38;;;31.75;57.75
22283;BME280;11310;51.528;21.204;2023-06-22T10:35:22;100229.72;;;31.84;56.56
22283;BME280;11310;51.528;21.204;2023-06-22T10:37:51;100218.03;;;31.90;55.12
22283;BME280;11310;51.528;21.204;2023-06-22T10:40:19;100226.44;;;31.95;54.41
22283;BME280;11310;51.528;21.204;2023-06-22T10:42:48;100226.44;;;31.95;53.61
22283;BME280;11310;51.528;21.204;2023-06-22T10:45:19;100239.16;;;31.88;52.73
22283;BME280;11310;51.528;21.204;2023-06-22T10:47:47;100222.25;;;31.93;52.29
22283;BME280;11310;51.528;21.204;2023-06-22T10:50:17;100226.41;;;31.89;51.87
22283;BME280;11310;51.528;21.204;2023-06-22T10:52:47;100221.34;;;31.79;52.66
22283;BME280;11310;51.528;21.204;2023-06-22T10:55:19;100222.63;;;31.83;51.97
22283;BME280;11310;51.528;21.204;2023-06-22T10:57:48;100223.31;;;31.98;52.36
22283;BME280;11310;51.528;21.204;2023-06-22T11:00:18;100214.81;;;32.14;50.77
22283;BME280;11310;51.528;21.204;2023-06-22T11:02:48;100216.56;;;32.28;50.30
22283;BME280;11310;51.528;21.204;2023-06-22T11:05:17;100218.25;;;32.36;47.92
22283;BME280;11310;51.528;21.204;2023-06-22T11:07:46;100209.78;;;32.11;50.31
22283;BME280;11310;51.528;21.204;2023-06-22T11:10:16;100213.41;;;32.25;48.81
22283;BME280;11310;51.528;21.204;2023-06-22T11:12:45;100206.97;;;32.32;49.66
22283;BME280;11310;51.528;21.204;2023-06-22T11:15:13;100208.44;;;32.41;48.43
22283;BME280;11310;51.528;21.204;2023-06-22T11:17:43;100198.84;;;32.45;49.28
22283;BME280;11310;51.528;21.204;2023-06-22T11:20:12;100193.19;;;32.53;49.63
22283;BME280;11310;51.528;21.204;2023-06-22T11:22:41;100196.56;;;32.55;50.41
22283;BME280;11310;51.528;21.204;2023-06-22T11:25:12;100202.81;;;32.62;49.72
22283;BME280;11310;51.528;21.204;2023-06-22T11:27:41;100197.56;;;32.54;51.50
22283;BME280;11310;51.528;21.204;2023-06-22T11:30:11;100196.56;;;32.55;49.75
22283;BME280;11310;51.528;21.204;2023-06-22T11:32:40;100193.38;;;32.52;48.71
22283;BME280;11310;51.528;21.204;2023-06-22T11:35:10;100185.66;;;32.36;47.83
22283;BME280;11310;51.528;21.204;2023-06-22T11:37:39;100195.19;;;32.25;48.59
22283;BME280;11310;51.528;21.204;2023-06-22T11:40:10;100195.38;;;32.17;50.54
22283;BME280;11310;51.528;21.204;2023-06-22T11:42:39;100181.88;;;32.30;50.48
22283;BME280;11310;51.528;21.204;2023-06-22T11:45:11;100185.88;;;32.47;48.06
22283;BME280;11310;51.528;21.204;2023-06-22T11:47:41;100186.50;;;32.62;47.27
22283;BME280;11310;51.528;21.204;2023-06-22T11:50:12;100188.81;;;32.65;46.72
22283;BME280;11310;51.528;21.204;2023-06-22T11:52:40;100187.34;;;32.63;46.50
22283;BME280;11310;51.528;21.204;2023-06-22T11:55:09;100185.69;;;32.62;46.57
22283;BME280;11310;51.528;21.204;2023-06-22T11:57:53;100181.09;;;32.75;48.77
22283;BME280;11310;51.528;21.204;2023-06-22T12:00:22;100179.84;;;32.97;46.06
22283;BME280;11310;51.528;21.204;2023-06-22T12:02:56;100183.44;;;32.98;47.76
22283;BME280;11310;51.528;21.204;2023-06-22T12:05:28;100182.97;;;33.07;46.93
22283;BME280;11310;51.528;21.204;2023-06-22T12:07:57;100184.84;;;33.07;44.67
22283;BME280;11310;51.528;21.204;2023-06-22T12:10:26;100175.69;;;33.01;45.72
22283;BME280;11310;51.528;21.204;2023-06-22T12:12:56;100170.44;;;33.00;45.47
22283;BME280;11310;51.528;21.204;2023-06-22T12:15:28;100181.53;;;32.92;45.01
22283;BME280;11310;51.528;21.204;2023-06-22T12:17:56;100174.84;;;32.81;44.36
22283;BME280;11310;51.528;21.204;2023-06-22T12:20:25;100167.50;;;32.69;45.15
22283;BME280;11310;51.528;21.204;2023-06-22T12:22:56;100172.06;;;32.75;45.25
22283;BME280;11310;51.528;21.204;2023-06-22T12:25:31;100170.25;;;32.88;44.58
22283;BME280;11310;51.528;21.204;2023-06-22T12:28:00;100166.69;;;32.94;44.63
22283;BME280;11310;51.528;21.204;2023-06-22T12:30:32;100172.97;;;32.95;43.21
22283;BME280;11310;51.528;21.204;2023-06-22T12:33:04;100170.25;;;32.88;44.84
22283;BME280;11310;51.528;21.204;2023-06-22T12:35:32;100171.28;;;33.00;42.71
22283;BME280;11310;51.528;21.204;2023-06-22T12:38:02;100168.56;;;33.00;43.04
22283;BME280;11310;51.528;21.204;2023-06-22T12:40:36;100167.31;;;32.96;43.12
22283;BME280;11310;51.528;21.204;2023-06-22T12:43:05;100162.47;;;33.11;43.85
22283;BME280;11310;51.528;21.204;2023-06-22T12:45:35;100159.34;;;33.21;42.15
22283;BME280;11310;51.528;21.204;2023-06-22T12:48:04;100154.50;;;33.16;42.84